createdAt,value
2023-01-03T00:00:31.073Z,100473.91
2023-01-03T00:01:34.001Z,100468.81
2023-01-03T00:02:36.532Z,100469.75
2023-01-03T00:03:38.826Z,100472.41
2023-01-03T00:04:45.863Z,100472.59
2023-01-03T00:05:51.225Z,100471.78
2023-01-03T00:06:53.747Z,100473.66
2023-01-03T00:07:56.079Z,100477.06
2023-01-03T00:08:59.739Z,100468.25
2023-01-03T00:10:08.962Z,100474.25
2023-01-03T00:11:52.809Z,100479.53
2023-01-03T00:12:57.059Z,100480.41
2023-01-03T00:13:59.202Z,100483.94
2023-01-03T00:15:01.731Z,100477.84
2023-01-03T00:16:04.381Z,100490.94
2023-01-03T00:17:07.626Z,100486.56
2023-01-03T00:18:09.833Z,100491.88
2023-01-03T00:19:14.142Z,100486.56
2023-01-03T00:20:16.318Z,100486.69
2023-01-03T00:21:18.655Z,100487.53
2023-01-03T00:22:21.335Z,100490.78
2023-01-03T00:23:23.531Z,100483.84
2023-01-03T00:24:26.101Z,100486.53
2023-01-03T00:25:29.094Z,100495.28
2023-01-03T00:26:32.329Z,100490.97
2023-01-03T00:27:34.556Z,100503.97
2023-01-03T00:28:37.040Z,100503.06
2023-01-03T00:29:39.626Z,100497.06
2023-01-03T00:30:45.003Z,100501.44
2023-01-03T00:31:47.719Z,100490.09
2023-01-03T00:32:49.972Z,100493.63
2023-01-03T00:33:52.246Z,100505.75
2023-01-03T00:34:54.426Z,100498.88
2023-01-03T00:35:56.660Z,100492.75
2023-01-03T00:36:59.135Z,100496.25
2023-01-03T00:38:01.331Z,100493.63
2023-01-03T00:39:03.751Z,100501.56
2023-01-03T00:40:06.840Z,100498.00
2023-01-03T00:41:11.365Z,100501.47
2023-01-03T00:42:13.762Z,100500.66
2023-01-03T00:43:30.796Z,100493.72
2023-01-03T00:44:33.545Z,100488.41
2023-01-03T00:45:35.962Z,100494.53
2023-01-03T00:46:38.331Z,100498.88
2023-01-03T00:47:42.586Z,100496.22
2023-01-03T00:48:45.351Z,100496.09
2023-01-03T00:49:47.481Z,100499.66
2023-01-03T00:50:49.736Z,100504.88
2023-01-03T00:51:53.815Z,100497.91
2023-01-03T00:52:56.064Z,100503.91
2023-01-03T00:53:59.634Z,100499.44
2023-01-03T00:55:01.883Z,100495.94
2023-01-03T00:56:09.443Z,100495.06
2023-01-03T00:57:11.695Z,100496.81
2023-01-03T00:58:14.391Z,100501.38
2023-01-03T00:59:18.180Z,100503.84
2023-01-03T01:00:20.391Z,100503.91
2023-01-03T01:01:29.177Z,100500.50
2023-01-03T01:02:31.920Z,100501.19
2023-01-03T01:03:35.633Z,100505.47
2023-01-03T01:04:37.938Z,100498.41
2023-01-03T01:05:40.890Z,100485.53
2023-01-03T01:06:45.492Z,100493.63
2023-01-03T01:07:48.004Z,100494.41
2023-01-03T01:08:52.079Z,100488.44
2023-01-03T01:09:54.320Z,100504.06
2023-01-03T01:11:02.261Z,100503.31
2023-01-03T01:12:07.117Z,100504.22
2023-01-03T01:13:09.403Z,100507.69
2023-01-03T01:14:21.467Z,100498.88
2023-01-03T01:15:23.736Z,100501.34
2023-01-03T01:16:31.345Z,100495.44
2023-01-03T01:17:33.780Z,100498.97
2023-01-03T01:18:37.049Z,100497.19
2023-01-03T01:19:42.839Z,100499.03
2023-01-03T01:20:45.088Z,100502.56
2023-01-03T01:21:47.433Z,100508.53
2023-01-03T01:22:49.641Z,100511.31
2023-01-03T01:23:52.248Z,100510.53
2023-01-03T01:24:54.516Z,100514.00
2023-01-03T01:26:01.157Z,100514.06
2023-01-03T01:27:03.620Z,100507.13
2023-01-03T01:28:05.879Z,100518.50
2023-01-03T01:29:08.205Z,100514.03
2023-01-03T01:30:10.454Z,100514.91
2023-01-03T01:31:15.518Z,100518.44
2023-01-03T01:32:18.062Z,100520.19
2023-01-03T01:33:20.268Z,100519.25
2023-01-03T01:34:22.934Z,100516.56
2023-01-03T01:35:25.119Z,100512.22
2023-01-03T01:36:32.570Z,100513.13
2023-01-03T01:37:34.924Z,100526.19
2023-01-03T01:38:37.145Z,100512.09
2023-01-03T01:39:39.396Z,100520.72
2023-01-03T01:40:41.710Z,100519.97
2023-01-03T01:42:03.577Z,100522.66
2023-01-03T01:43:36.630Z,100518.38
2023-01-03T01:44:41.435Z,100525.31
2023-01-03T01:45:46.015Z,100521.00
2023-01-03T01:46:48.702Z,100520.94
2023-01-03T01:47:55.463Z,100514.03
2023-01-03T01:49:06.228Z,100527.22
2023-01-03T01:50:11.169Z,100525.47
2023-01-03T01:51:13.843Z,100521.09
2023-01-03T01:52:19.979Z,100526.28
2023-01-03T01:53:27.075Z,100529.81
2023-01-03T01:54:29.678Z,100535.00
2023-01-03T01:55:43.235Z,100532.34
2023-01-03T01:56:52.772Z,100534.06
2023-01-03T01:57:55.194Z,100532.28
2023-01-03T01:58:57.883Z,100530.53
2023-01-03T02:00:00.282Z,100522.75
2023-01-03T02:01:41.644Z,100527.22
2023-01-03T02:02:46.662Z,100528.94
2023-01-03T02:04:10.782Z,100525.47
2023-01-03T02:05:14.823Z,100524.50
2023-01-03T02:06:18.411Z,100525.38
2023-01-03T02:07:21.919Z,100528.81
2023-01-03T02:08:24.997Z,100529.72
2023-01-03T02:09:27.401Z,100523.56
2023-01-03T02:10:39.010Z,100525.19
2023-01-03T02:12:29.462Z,100524.31
2023-01-03T02:13:46.281Z,100526.88
2023-01-03T02:15:07.527Z,100521.63
2023-01-03T02:16:27.637Z,100530.41
2023-01-03T02:18:05.397Z,100520.06
2023-01-03T02:19:44.119Z,100521.00
2023-01-03T02:21:24.421Z,100510.59
2023-01-03T02:22:57.371Z,100510.41
2023-01-03T02:24:12.380Z,100519.13
2023-01-03T02:25:33.214Z,100520.03
2023-01-03T02:27:02.874Z,100528.88
2023-01-03T02:28:42.351Z,100524.63
2023-01-03T02:30:08.824Z,100522.06
2023-01-03T02:31:25.385Z,100528.22
2023-01-03T02:32:34.490Z,100525.69
2023-01-03T02:33:42.855Z,100526.50
2023-01-03T02:35:32.902Z,100517.75
2023-01-03T02:37:07.785Z,100522.13
2023-01-03T02:38:23.246Z,100521.28
2023-01-03T02:39:41.433Z,100519.63
2023-01-03T02:40:51.350Z,100526.56
2023-01-03T02:42:20.093Z,100525.72
2023-01-03T02:43:36.596Z,100521.34
2023-01-03T02:44:45.382Z,100523.03
2023-01-03T02:46:09.029Z,100517.75
2023-01-03T02:47:15.194Z,100516.03
2023-01-03T02:48:35.912Z,100516.84
2023-01-03T02:49:52.777Z,100518.56
2023-01-03T02:50:59.991Z,100525.53
2023-01-03T02:52:06.002Z,100525.56
2023-01-03T02:53:12.478Z,100529.91
2023-01-03T02:54:20.910Z,100523.88
2023-01-03T02:55:26.555Z,100534.41
2023-01-03T02:57:09.850Z,100528.25
2023-01-03T02:58:20.053Z,100522.25
2023-01-03T02:59:47.174Z,100533.59
2023-01-03T03:00:53.375Z,100530.97
2023-01-03T03:01:55.792Z,100538.84
2023-01-03T03:03:02.177Z,100536.22
2023-01-03T03:04:06.554Z,100542.34
2023-01-03T03:05:14.395Z,100541.53
2023-01-03T03:06:29.554Z,100550.25
2023-01-03T03:07:37.267Z,100547.66
2023-01-03T03:08:39.816Z,100552.91
2023-01-03T03:10:00.813Z,100546.84
2023-01-03T03:11:21.437Z,100542.50
2023-01-03T03:12:44.055Z,100550.31
2023-01-03T03:14:09.655Z,100552.03
2023-01-03T03:15:14.446Z,100558.09
2023-01-03T03:16:49.254Z,100559.81
2023-01-03T03:17:55.649Z,100557.19
2023-01-03T03:19:00.886Z,100551.97
2023-01-03T03:20:31.917Z,100547.63
2023-01-03T03:21:55.400Z,100557.19
2023-01-03T03:23:19.385Z,100558.91
2023-01-03T03:24:46.652Z,100558.97
2023-01-03T03:25:53.003Z,100552.03
2023-01-03T03:26:58.283Z,100552.88
2023-01-03T03:28:26.004Z,100552.88
2023-01-03T03:29:29.444Z,100552.03
2023-01-03T03:30:36.988Z,100547.66
2023-01-03T03:31:47.442Z,100546.81
2023-01-03T03:32:53.328Z,100547.66
2023-01-03T03:34:13.077Z,100546.00
2023-01-03T03:35:19.394Z,100539.00
2023-01-03T03:36:44.919Z,100547.72
2023-01-03T03:37:50.483Z,100545.13
2023-01-03T03:38:52.705Z,100546.06
2023-01-03T03:40:14.138Z,100543.47
2023-01-03T03:41:54.818Z,100552.19
2023-01-03T03:43:35.051Z,100553.13
2023-01-03T03:45:02.481Z,100552.25
2023-01-03T03:46:13.820Z,100545.28
2023-01-03T03:47:19.124Z,100553.13
2023-01-03T03:48:51.450Z,100553.97
2023-01-03T03:49:57.168Z,100552.25
2023-01-03T03:51:11.145Z,100540.09
2023-01-03T03:52:16.968Z,100547.91
2023-01-03T03:53:23.861Z,100550.53
2023-01-03T03:54:28.353Z,100550.56
2023-01-03T03:55:39.734Z,100537.53
2023-01-03T03:56:46.596Z,100556.69
2023-01-03T03:58:05.689Z,100552.38
2023-01-03T03:59:10.994Z,100560.16
2023-01-03T04:00:21.449Z,100558.44
2023-01-03T04:01:27.213Z,100558.44
2023-01-03T04:02:32.037Z,100555.81
2023-01-03T04:03:36.891Z,100556.69
2023-01-03T04:04:44.755Z,100549.75
2023-01-03T04:05:53.097Z,100554.97
2023-01-03T04:06:55.374Z,100551.50
2023-01-03T04:07:57.908Z,100559.31
2023-01-03T04:09:00.709Z,100547.13
2023-01-03T04:10:04.948Z,100543.63
2023-01-03T04:11:07.621Z,100548.84
2023-01-03T04:12:09.967Z,100545.41
2023-01-03T04:13:12.390Z,100547.13
2023-01-03T04:14:14.587Z,100546.28
2023-01-03T04:15:17.628Z,100548.88
2023-01-03T04:16:19.890Z,100551.44
2023-01-03T04:17:22.267Z,100560.19
2023-01-03T04:18:24.503Z,100549.75
2023-01-03T04:19:26.792Z,100554.97
2023-01-03T04:20:29.519Z,100561.94
2023-01-03T04:21:33.615Z,100562.78
2023-01-03T04:22:35.935Z,100554.97
2023-01-03T04:23:38.100Z,100562.84
2023-01-03T04:24:40.378Z,100557.59
2023-01-03T04:25:43.279Z,100557.59
2023-01-03T04:26:46.301Z,100566.34
2023-01-03T04:27:48.568Z,100576.75
2023-01-03T04:28:50.824Z,100576.78
2023-01-03T04:29:53.031Z,100576.75
2023-01-03T04:30:55.335Z,100572.44
2023-01-03T04:31:57.740Z,100574.16
2023-01-03T04:33:04.724Z,100570.66
2023-01-03T04:34:07.305Z,100570.69
2023-01-03T04:35:10.018Z,100574.16
2023-01-03T04:36:12.430Z,100572.41
2023-01-03T04:37:14.741Z,100571.53
2023-01-03T04:38:18.005Z,100571.53
2023-01-03T04:39:20.242Z,100575.88
2023-01-03T04:40:22.619Z,100568.91
2023-01-03T04:41:24.891Z,100566.34
2023-01-03T04:42:46.467Z,100571.50
2023-01-03T04:44:04.721Z,100572.41
2023-01-03T04:45:07.727Z,100580.25
2023-01-03T04:46:10.027Z,100574.16
2023-01-03T04:47:12.324Z,100574.16
2023-01-03T04:48:14.629Z,100578.53
2023-01-03T04:49:16.955Z,100571.56
2023-01-03T04:50:19.176Z,100575.03
2023-01-03T04:51:21.453Z,100576.75
2023-01-03T04:52:23.707Z,100578.50
2023-01-03T04:53:27.632Z,100575.03
2023-01-03T04:54:30.004Z,100583.72
2023-01-03T04:55:32.222Z,100578.50
2023-01-03T04:56:37.204Z,100575.91
2023-01-03T04:57:39.434Z,100575.91
2023-01-03T04:58:41.773Z,100578.50
2023-01-03T04:59:43.963Z,100573.28
2023-01-03T05:00:46.374Z,100572.41
2023-01-03T05:01:52.322Z,100582.84
2023-01-03T05:02:54.886Z,100588.94
2023-01-03T05:03:59.719Z,100582.84
2023-01-03T05:05:01.995Z,100584.56
2023-01-03T05:06:07.983Z,100585.47
2023-01-03T05:07:10.234Z,100581.09
2023-01-03T05:08:12.748Z,100581.97
2023-01-03T05:09:15.251Z,100586.31
2023-01-03T05:10:17.498Z,100587.19
2023-01-03T05:11:19.765Z,100588.03
2023-01-03T05:12:22.244Z,100581.09
2023-01-03T05:13:24.683Z,100571.53
2023-01-03T05:14:27.048Z,100588.03
2023-01-03T05:15:31.172Z,100585.44
2023-01-03T05:16:33.758Z,100582.81
2023-01-03T05:17:36.024Z,100581.06
2023-01-03T05:18:38.647Z,100583.66
2023-01-03T05:19:59.284Z,100588.88
2023-01-03T05:21:30.883Z,100592.38
2023-01-03T05:22:51.871Z,100588.88
2023-01-03T05:24:12.358Z,100582.78
2023-01-03T05:25:32.856Z,100586.28
2023-01-03T05:26:39.523Z,100575.84
2023-01-03T05:27:41.776Z,100579.34
2023-01-03T05:28:46.538Z,100584.56
2023-01-03T05:29:52.760Z,100588.06
2023-01-03T05:30:57.111Z,100591.50
2023-01-03T05:31:59.434Z,100590.66
2023-01-03T05:33:01.689Z,100589.78
2023-01-03T05:34:04.367Z,100592.38
2023-01-03T05:35:06.753Z,100595.00
2023-01-03T05:36:09.917Z,100595.84
2023-01-03T05:37:12.381Z,100596.72
2023-01-03T05:38:15.151Z,100595.88
2023-01-03T05:39:17.331Z,100600.19
2023-01-03T05:40:19.622Z,100596.72
2023-01-03T05:41:42.128Z,100601.06
2023-01-03T05:42:44.351Z,100606.28
2023-01-03T05:43:46.585Z,100599.31
2023-01-03T05:44:49.078Z,100604.53
2023-01-03T05:45:52.919Z,100609.75
2023-01-03T05:46:55.151Z,100610.63
2023-01-03T05:47:58.651Z,100604.53
2023-01-03T05:49:00.907Z,100611.47
2023-01-03T05:50:03.285Z,100604.53
2023-01-03T05:51:05.599Z,100609.72
2023-01-03T05:52:07.831Z,100608.88
2023-01-03T05:53:10.276Z,100615.81
2023-01-03T05:54:14.649Z,100613.22
2023-01-03T05:55:16.904Z,100611.47
2023-01-03T05:56:19.282Z,100621.03
2023-01-03T05:57:21.616Z,100612.38
2023-01-03T05:58:23.800Z,100618.41
2023-01-03T05:59:26.991Z,100614.09
2023-01-03T06:00:29.842Z,100617.56
2023-01-03T06:01:32.166Z,100619.28
2023-01-03T06:02:34.492Z,100614.06
2023-01-03T06:03:36.804Z,100616.69
2023-01-03T06:04:39.082Z,100607.13
2023-01-03T06:05:47.866Z,100614.06
2023-01-03T06:06:53.027Z,100613.19
2023-01-03T06:07:55.312Z,100620.16
2023-01-03T06:08:57.851Z,100612.34
2023-01-03T06:10:00.507Z,100613.19
2023-01-03T06:11:10.133Z,100608.00
2023-01-03T06:12:12.661Z,100617.53
2023-01-03T06:13:15.320Z,100617.56
2023-01-03T06:14:17.636Z,100605.38
2023-01-03T06:15:20.345Z,100620.13
2023-01-03T06:16:41.389Z,100617.56
2023-01-03T06:17:57.657Z,100601.03
2023-01-03T06:19:01.375Z,100605.41
2023-01-03T06:20:04.339Z,100604.53
2023-01-03T06:21:06.641Z,100607.16
2023-01-03T06:22:11.051Z,100611.47
2023-01-03T06:23:14.691Z,100603.69
2023-01-03T06:24:16.995Z,100611.50
2023-01-03T06:25:19.249Z,100610.63
2023-01-03T06:26:23.503Z,100613.19
2023-01-03T06:27:25.825Z,100614.94
2023-01-03T06:28:28.041Z,100616.69
2023-01-03T06:29:30.391Z,100615.84
2023-01-03T06:30:32.649Z,100619.28
2023-01-03T06:31:34.990Z,100614.94
2023-01-03T06:32:37.299Z,100620.16
2023-01-03T06:33:40.598Z,100613.22
2023-01-03T06:34:42.854Z,100612.34
2023-01-03T06:35:45.285Z,100613.22
2023-01-03T06:36:47.560Z,100616.69
2023-01-03T06:37:49.777Z,100617.56
2023-01-03T06:38:53.110Z,100615.81
2023-01-03T06:39:55.340Z,100612.34
2023-01-03T06:40:57.841Z,100614.09
2023-01-03T06:42:23.946Z,100608.88
2023-01-03T06:43:26.681Z,100618.44
2023-01-03T06:44:29.023Z,100616.69
2023-01-03T06:45:49.987Z,100615.81
2023-01-03T06:47:10.940Z,100614.06
2023-01-03T06:48:31.481Z,100615.81
2023-01-03T06:50:05.947Z,100616.66
2023-01-03T06:51:29.338Z,100621.00
2023-01-03T06:52:50.774Z,100615.81
2023-01-03T06:53:53.144Z,100611.50
2023-01-03T06:54:55.443Z,100617.53
2023-01-03T06:55:59.161Z,100617.53
2023-01-03T06:57:01.608Z,100621.03
2023-01-03T06:58:03.906Z,100614.94
2023-01-03T06:59:06.250Z,100617.53
2023-01-03T07:00:09.283Z,100627.06
2023-01-03T07:01:14.314Z,100626.22
2023-01-03T07:02:16.711Z,100628.81
2023-01-03T07:03:19.096Z,100627.97
2023-01-03T07:04:23.683Z,100615.78
2023-01-03T07:05:25.949Z,100627.09
2023-01-03T07:06:28.927Z,100626.22
2023-01-03T07:07:31.640Z,100633.19
2023-01-03T07:08:33.852Z,100636.63
2023-01-03T07:09:36.286Z,100633.97
2023-01-03T07:10:38.502Z,100638.34
2023-01-03T07:11:41.542Z,100635.66
2023-01-03T07:13:03.068Z,100637.28
2023-01-03T07:14:06.768Z,100630.41
2023-01-03T07:15:09.817Z,100633.91
2023-01-03T07:16:19.380Z,100633.97
2023-01-03T07:17:21.644Z,100635.72
2023-01-03T07:18:24.086Z,100635.75
2023-01-03T07:19:26.372Z,100638.31
2023-01-03T07:20:28.941Z,100638.34
2023-01-03T07:21:33.439Z,100637.47
2023-01-03T07:22:35.956Z,100643.53
2023-01-03T07:23:38.741Z,100643.56
2023-01-03T07:30:15.072Z,100634.88
2023-01-03T07:31:18.113Z,100642.72
2023-01-03T07:32:21.143Z,100640.97
2023-01-03T07:33:23.371Z,100640.09
2023-01-03T07:34:25.644Z,100644.44
2023-01-03T07:35:27.853Z,100648.78
2023-01-03T07:36:30.096Z,100645.28
2023-01-03T07:37:32.299Z,100646.16
2023-01-03T07:38:34.551Z,100645.31
2023-01-03T07:39:36.731Z,100651.41
2023-01-03T07:40:39.567Z,100655.72
2023-01-03T07:42:00.690Z,100658.31
2023-01-03T07:43:22.012Z,100660.06
2023-01-03T07:44:24.195Z,100660.97
2023-01-03T07:45:26.441Z,100666.16
2023-01-03T07:46:30.834Z,100667.88
2023-01-03T07:47:33.064Z,100668.78
2023-01-03T07:48:36.235Z,100661.81
2023-01-03T07:49:38.425Z,100659.22
2023-01-03T07:50:41.101Z,100654.88
2023-01-03T07:51:43.320Z,100655.75
2023-01-03T07:52:45.619Z,100668.78
2023-01-03T07:53:52.070Z,100665.28
2023-01-03T07:54:54.263Z,100668.75
2023-01-03T07:56:07.685Z,100665.28
2023-01-03T07:57:14.569Z,100674.00
2023-01-03T07:58:16.788Z,100660.94
2023-01-03T07:59:19.048Z,100674.84
2023-01-03T08:00:21.420Z,100670.50
2023-01-03T08:01:25.114Z,100673.13
2023-01-03T08:02:27.577Z,100667.03
2023-01-03T08:03:30.032Z,100660.09
2023-01-03T08:07:59.047Z,100673.13
2023-01-03T08:09:20.247Z,100673.97
2023-01-03T08:10:41.115Z,100677.47
2023-01-03T08:12:02.262Z,100672.25
2023-01-03T08:13:17.513Z,100675.75
2023-01-03T08:14:25.341Z,100680.06
2023-01-03T08:15:28.882Z,100690.50
2023-01-03T08:16:31.187Z,100683.53
2023-01-03T08:17:33.678Z,100680.06
2023-01-03T08:18:35.884Z,100678.34
2023-01-03T08:19:45.115Z,100680.91
2023-01-03T08:20:48.180Z,100683.53
2023-01-03T08:21:50.518Z,100688.75
2023-01-03T08:22:52.816Z,100680.91
2023-01-03T08:23:55.041Z,100694.81
2023-01-03T08:24:57.257Z,100687.88
2023-01-03T08:26:05.106Z,100686.97
2023-01-03T08:27:07.358Z,100692.19
2023-01-03T08:28:10.821Z,100693.94
2023-01-03T08:29:13.106Z,100692.19
2023-01-03T08:30:15.415Z,100688.72
2023-01-03T08:31:26.916Z,100695.69
2023-01-03T08:32:29.321Z,100700.91
2023-01-03T08:33:36.043Z,100699.13
2023-01-03T08:34:42.021Z,100696.53
2023-01-03T08:35:50.358Z,100700.00
2023-01-03T08:37:07.613Z,100693.94
2023-01-03T08:38:14.896Z,100697.38
2023-01-03T08:39:25.006Z,100699.97
2023-01-03T08:40:28.926Z,100703.44
2023-01-03T08:41:35.996Z,100705.19
2023-01-03T08:42:38.576Z,100710.41
2023-01-03T08:43:44.377Z,100703.44
2023-01-03T08:44:48.327Z,100709.53
2023-01-03T08:45:50.661Z,100708.66
2023-01-03T08:46:55.808Z,100706.03
2023-01-03T08:48:02.648Z,100713.00
2023-01-03T08:49:05.249Z,100716.50
2023-01-03T08:50:08.070Z,100719.94
2023-01-03T08:51:10.737Z,100702.56
2023-01-03T08:52:12.923Z,100703.41
2023-01-03T08:53:15.277Z,100709.53
2023-01-03T08:54:17.587Z,100705.16
2023-01-03T08:55:19.838Z,100694.72
2023-01-03T08:56:22.079Z,100699.03
2023-01-03T08:57:24.317Z,100701.66
2023-01-03T08:58:26.849Z,100706.00
2023-01-03T08:59:29.102Z,100707.72
2023-01-03T09:00:31.371Z,100703.38
2023-01-03T09:01:34.129Z,100708.59
2023-01-03T09:02:36.826Z,100709.47
2023-01-03T09:03:39.356Z,100715.53
2023-01-03T09:04:41.645Z,100719.91
2023-01-03T09:05:44.067Z,100720.75
2023-01-03T09:06:46.705Z,100718.16
2023-01-03T09:07:48.910Z,100725.09
2023-01-03T09:08:51.359Z,100719.00
2023-01-03T09:09:53.798Z,100718.16
2023-01-03T09:10:56.005Z,100727.69
2023-01-03T09:11:58.483Z,100725.09
2023-01-03T09:13:01.842Z,100726.91
2023-01-03T09:14:04.588Z,100734.75
2023-01-03T09:15:07.307Z,100736.50
2023-01-03T09:16:12.517Z,100740.88
2023-01-03T09:17:14.800Z,100745.22
2023-01-03T09:18:17.043Z,100747.84
2023-01-03T09:19:19.253Z,100746.06
2023-01-03T09:20:21.557Z,100742.63
2023-01-03T09:21:23.889Z,100742.59
2023-01-03T09:22:26.482Z,100742.59
2023-01-03T09:23:30.092Z,100740.88
2023-01-03T09:24:32.312Z,100741.75
2023-01-03T09:25:37.317Z,100744.34
2023-01-03T09:26:40.101Z,100733.06
2023-01-03T09:27:48.766Z,100736.53
2023-01-03T09:28:51.136Z,100740.88
2023-01-03T09:29:53.379Z,100735.66
2023-01-03T09:30:56.002Z,100739.13
2023-01-03T09:32:01.352Z,100733.91
2023-01-03T09:33:04.953Z,100743.47
2023-01-03T09:34:07.199Z,100739.16
2023-01-03T09:35:09.963Z,100748.72
2023-01-03T09:36:12.347Z,100750.41
2023-01-03T09:37:14.780Z,100752.16
2023-01-03T09:38:17.019Z,100747.84
2023-01-03T09:39:19.380Z,100740.00
2023-01-03T09:40:21.778Z,100743.47
2023-01-03T09:41:26.284Z,100746.09
2023-01-03T09:42:47.789Z,100746.09
2023-01-03T09:43:57.204Z,100746.06
2023-01-03T09:45:00.808Z,100750.41
2023-01-03T09:46:03.610Z,100739.06
2023-01-03T09:47:06.073Z,100742.47
2023-01-03T09:48:14.164Z,100745.88
2023-01-03T09:49:16.403Z,100740.63
2023-01-03T09:50:57.394Z,100734.44
2023-01-03T09:52:04.284Z,100726.38
2023-01-03T09:53:45.194Z,100737.31
2023-01-03T09:55:06.530Z,100724.91
2023-01-03T09:56:30.367Z,100733.56
2023-01-03T09:57:55.241Z,100729.09
2023-01-03T09:59:15.883Z,100731.50
2023-01-03T10:00:44.935Z,100726.38
2023-01-03T10:02:31.683Z,100740.50
2023-01-03T10:04:05.277Z,100730.78
2023-01-03T10:05:16.832Z,100728.09
2023-01-03T10:06:40.947Z,100730.53
2023-01-03T10:08:09.418Z,100734.91
2023-01-03T10:09:17.564Z,100735.63
2023-01-03T10:10:46.120Z,100730.34
2023-01-03T10:12:01.728Z,100730.19
2023-01-03T10:13:20.228Z,100726.53
2023-01-03T10:14:50.032Z,100721.13
2023-01-03T10:16:01.778Z,100728.88
2023-01-03T10:17:34.847Z,100725.56
2023-01-03T10:18:42.592Z,100727.09
2023-01-03T10:19:59.976Z,100721.09
2023-01-03T10:21:20.207Z,100718.13
2023-01-03T10:22:27.122Z,100718.06
2023-01-03T10:23:30.519Z,100722.41
2023-01-03T10:24:41.076Z,100716.34
2023-01-03T10:25:46.475Z,100725.63
2023-01-03T10:26:56.957Z,100724.56
2023-01-03T10:28:11.868Z,100726.84
2023-01-03T10:29:18.879Z,100717.44
2023-01-03T10:31:07.051Z,100723.31
2023-01-03T10:32:33.508Z,100728.06
2023-01-03T10:33:38.989Z,100723.50
2023-01-03T10:34:41.211Z,100719.97
2023-01-03T10:35:43.424Z,100720.38
2023-01-03T10:36:45.588Z,100720.66
2023-01-03T10:37:50.575Z,100722.97
2023-01-03T10:39:05.375Z,100715.66
2023-01-03T10:40:08.465Z,100717.34
2023-01-03T10:41:40.229Z,100723.78
2023-01-03T10:42:43.720Z,100717.38
2023-01-03T10:43:58.930Z,100720.34
2023-01-03T10:45:04.594Z,100719.91
2023-01-03T10:46:16.416Z,100714.72
2023-01-03T10:47:18.688Z,100719.03
2023-01-03T10:48:21.281Z,100717.31
2023-01-03T10:49:29.131Z,100716.50
2023-01-03T10:50:37.782Z,100715.84
2023-01-03T10:52:02.729Z,100711.28
2023-01-03T10:53:08.471Z,100713.00
2023-01-03T10:54:18.274Z,100709.19
2023-01-03T10:55:21.696Z,100706.28
2023-01-03T10:56:25.384Z,100704.53
2023-01-03T10:57:39.793Z,100700.94
2023-01-03T10:58:42.017Z,100709.91
2023-01-03T10:59:49.222Z,100708.06
2023-01-03T11:00:53.549Z,100710.81
2023-01-03T11:02:16.586Z,100710.81
2023-01-03T11:03:24.975Z,100698.81
2023-01-03T11:04:29.172Z,100710.66
2023-01-03T11:05:31.428Z,100694.31
2023-01-03T11:06:33.917Z,100708.56
2023-01-03T11:07:49.075Z,100705.13
2023-01-03T11:09:01.918Z,100703.25
2023-01-03T11:10:04.327Z,100706.59
2023-01-03T11:11:27.063Z,100706.63
2023-01-03T11:12:35.603Z,100711.53
2023-01-03T11:13:40.049Z,100710.91
2023-01-03T11:14:55.848Z,100712.81
2023-01-03T11:16:02.035Z,100708.16
2023-01-03T11:17:06.412Z,100712.75
2023-01-03T11:18:19.202Z,100703.59
2023-01-03T11:19:25.676Z,100700.63
2023-01-03T11:20:45.982Z,100701.28
2023-01-03T11:22:05.280Z,100698.25
2023-01-03T11:23:22.086Z,100704.59
2023-01-03T11:24:47.194Z,100694.66
2023-01-03T11:26:26.786Z,100700.22
2023-01-03T11:27:44.523Z,100698.13
2023-01-03T11:29:24.204Z,100706.66
2023-01-03T11:31:03.373Z,100691.44
2023-01-03T11:32:23.622Z,100693.63
2023-01-03T11:33:54.963Z,100691.91
2023-01-03T11:35:23.319Z,100690.00
2023-01-03T11:36:43.827Z,100693.63
2023-01-03T11:38:18.978Z,100689.22
2023-01-03T11:41:35.922Z,100689.06
2023-01-03T11:43:06.757Z,100698.91
2023-01-03T11:44:24.140Z,100694.81
2023-01-03T11:45:34.210Z,100692.59
2023-01-03T11:46:52.031Z,100683.66
2023-01-03T11:48:01.259Z,100692.00
2023-01-03T11:49:29.277Z,100692.03
2023-01-03T11:50:40.288Z,100686.44
2023-01-03T11:52:01.790Z,100687.69
2023-01-03T11:53:32.142Z,100687.13
2023-01-03T11:55:22.443Z,100680.84
2023-01-03T11:56:44.596Z,100688.66
2023-01-03T11:58:05.808Z,100685.09
2023-01-03T11:59:21.912Z,100677.69
2023-01-03T12:00:37.717Z,100683.13
2023-01-03T12:01:48.961Z,100684.44
2023-01-03T12:03:09.429Z,100679.22
2023-01-03T12:04:26.854Z,100668.16
2023-01-03T12:05:44.571Z,100681.69
2023-01-03T12:08:44.850Z,100677.56
2023-01-03T12:10:01.991Z,100678.41
2023-01-03T12:11:31.407Z,100678.09
2023-01-03T12:13:08.468Z,100680.53
2023-01-03T12:14:19.094Z,100672.88
2023-01-03T12:15:27.087Z,100677.00
2023-01-03T12:16:51.254Z,100680.34
2023-01-03T12:18:35.315Z,100676.69
2023-01-03T12:19:45.051Z,100670.88
2023-01-03T12:20:55.993Z,100671.47
2023-01-03T12:22:01.420Z,100669.13
2023-01-03T12:23:30.528Z,100666.38
2023-01-03T12:24:46.620Z,100658.25
2023-01-03T12:25:55.125Z,100658.34
2023-01-03T12:27:10.387Z,100662.06
2023-01-03T12:28:16.566Z,100662.03
2023-01-03T12:29:28.914Z,100666.59
2023-01-03T12:30:53.047Z,100667.31
2023-01-03T12:32:14.902Z,100664.25
2023-01-03T12:33:24.099Z,100662.16
2023-01-03T12:34:31.936Z,100656.66
2023-01-03T12:35:44.480Z,100659.00
2023-01-03T12:37:04.956Z,100661.59
2023-01-03T12:38:11.495Z,100668.13
2023-01-03T12:39:42.408Z,100672.81
2023-01-03T12:41:24.920Z,100656.97
2023-01-03T12:42:37.635Z,100665.69
2023-01-03T12:43:48.475Z,100661.47
2023-01-03T12:45:11.717Z,100663.41
2023-01-03T12:46:19.985Z,100661.47
2023-01-03T12:47:30.869Z,100663.28
2023-01-03T12:48:51.741Z,100653.59
2023-01-03T12:50:04.177Z,100652.81
2023-01-03T12:51:06.574Z,100657.41
2023-01-03T12:52:16.714Z,100649.25
2023-01-03T12:53:46.899Z,100658.25
2023-01-03T12:54:58.668Z,100649.28
2023-01-03T12:56:33.784Z,100654.31
2023-01-03T12:58:03.915Z,100638.66
2023-01-03T12:59:54.439Z,100645.03
2023-01-03T13:01:07.288Z,100647.94
2023-01-03T13:02:45.718Z,100647.91
2023-01-03T13:03:54.477Z,100645.44
2023-01-03T13:05:13.516Z,100631.75
2023-01-03T13:06:37.046Z,100636.97
2023-01-03T13:07:44.639Z,100640.59
2023-01-03T13:09:07.644Z,100646.22
2023-01-03T13:10:13.709Z,100644.59
2023-01-03T13:11:32.976Z,100644.34
2023-01-03T13:12:39.046Z,100640.25
2023-01-03T13:13:51.935Z,100640.00
2023-01-03T13:14:56.482Z,100644.28
2023-01-03T13:15:59.074Z,100626.88
2023-01-03T13:17:07.078Z,100629.84
2023-01-03T13:18:35.864Z,100637.19
2023-01-03T13:19:39.558Z,100638.25
2023-01-03T13:20:47.860Z,100638.47
2023-01-03T13:21:54.945Z,100633.13
2023-01-03T13:23:17.914Z,100638.06